createdAt,value
2018-07-27T00:00:06.103Z,47.40
2018-07-27T00:02:33.460Z,47.40
2018-07-27T00:05:00.793Z,48.00
2018-07-27T00:07:28.135Z,47.70
2018-07-27T00:09:55.471Z,47.70
2018-07-27T00:12:22.791Z,47.50
2018-07-27T00:14:50.122Z,47.50
2018-07-27T00:17:17.452Z,47.90
2018-07-27T00:19:44.772Z,47.40
2018-07-27T00:22:12.145Z,47.70
2018-07-27T00:24:39.457Z,48.10
2018-07-27T00:27:06.777Z,47.80
2018-07-27T00:29:34.189Z,47.90
2018-07-27T00:32:01.572Z,48.60
2018-07-27T00:34:28.902Z,49.00
2018-07-27T00:36:56.199Z,48.10
2018-07-27T00:39:23.607Z,49.10
2018-07-27T00:41:50.964Z,49.40
2018-07-27T00:44:18.257Z,49.50
2018-07-27T00:46:45.582Z,50.40
2018-07-27T00:49:12.941Z,49.70
2018-07-27T00:51:40.284Z,50.40
2018-07-27T00:54:07.611Z,49.40
2018-07-27T00:56:34.921Z,49.00
2018-07-27T00:59:02.290Z,49.10
2018-07-27T01:01:29.631Z,49.30
2018-07-27T01:03:56.963Z,49.10
2018-07-27T01:06:24.300Z,49.00
2018-07-27T01:08:51.624Z,49.60
2018-07-27T01:11:19.107Z,50.50
2018-07-27T01:13:46.454Z,51.70
2018-07-27T01:16:13.765Z,51.90
2018-07-27T01:18:41.115Z,51.30
2018-07-27T01:21:08.507Z,51.60
2018-07-27T01:23:35.882Z,52.70
2018-07-27T01:26:03.241Z,53.20
2018-07-27T01:28:30.625Z,52.30
2018-07-27T01:30:57.947Z,52.60
2018-07-27T01:33:25.268Z,52.30
2018-07-27T01:35:52.624Z,52.90
2018-07-27T01:38:20.038Z,52.00
2018-07-27T01:40:47.346Z,51.80
2018-07-27T01:43:14.653Z,52.70
2018-07-27T01:45:42.007Z,52.90
2018-07-27T01:48:09.317Z,52.30
2018-07-27T01:50:36.639Z,52.50
2018-07-27T01:53:04.033Z,53.00
2018-07-27T01:55:31.360Z,52.40
2018-07-27T01:57:58.680Z,52.60
2018-07-27T02:00:26.011Z,52.80
2018-07-27T02:02:53.339Z,54.70
2018-07-27T02:05:20.679Z,54.00
2018-07-27T02:07:47.991Z,53.30
2018-07-27T02:10:15.315Z,55.20
2018-07-27T02:12:42.626Z,53.90
2018-07-27T02:15:09.982Z,54.80
2018-07-27T02:17:37.308Z,55.70
2018-07-27T02:20:04.679Z,56.40
2018-07-27T02:22:32.022Z,55.10
2018-07-27T02:24:59.373Z,55.20
2018-07-27T02:27:26.717Z,55.30
2018-07-27T02:29:54.047Z,56.20
2018-07-27T02:32:21.367Z,57.00
2018-07-27T02:34:48.709Z,56.10
2018-07-27T02:37:16.039Z,56.90
2018-07-27T02:39:43.346Z,55.40
2018-07-27T02:42:10.699Z,55.30
2018-07-27T02:44:38.024Z,56.90
2018-07-27T02:47:05.323Z,56.90
2018-07-27T02:49:32.673Z,56.90
2018-07-27T02:54:27.233Z,56.70
2018-07-27T02:56:54.524Z,57.60
2018-07-27T02:59:21.836Z,57.50
2018-07-27T03:01:49.158Z,57.20
2018-07-27T03:04:16.482Z,57.10
2018-07-27T03:06:43.829Z,57.60
2018-07-27T03:09:11.146Z,57.60
2018-07-27T03:11:38.462Z,57.90
2018-07-27T03:14:05.794Z,58.50
2018-07-27T03:16:33.130Z,58.70
2018-07-27T03:19:00.525Z,59.40
2018-07-27T03:21:27.867Z,59.20
2018-07-27T03:23:55.179Z,58.80
2018-07-27T03:26:22.526Z,59.20
2018-07-27T03:28:49.872Z,59.30
2018-07-27T03:31:17.175Z,57.80
2018-07-27T03:33:44.496Z,57.10
2018-07-27T03:36:11.838Z,57.30
2018-07-27T03:38:39.144Z,57.10
2018-07-27T03:41:06.953Z,57.30
2018-07-27T03:43:34.311Z,57.50
2018-07-27T03:46:01.681Z,58.50
2018-07-27T03:48:29.056Z,58.00
2018-07-27T03:50:56.407Z,59.40
2018-07-27T03:53:23.743Z,59.90
2018-07-27T03:55:51.095Z,59.20
2018-07-27T03:58:18.429Z,58.90
2018-07-27T04:00:46.015Z,59.20
2018-07-27T04:03:13.339Z,59.70
2018-07-27T04:08:07.871Z,59.30
2018-07-27T04:10:35.212Z,59.40
2018-07-27T04:13:02.579Z,59.60
2018-07-27T04:15:29.927Z,59.90
2018-07-27T04:17:57.271Z,60.00
2018-07-27T04:20:24.616Z,60.70
2018-07-27T04:22:52.074Z,59.10
2018-07-27T04:25:19.388Z,59.20
2018-07-27T04:27:46.723Z,59.60
2018-07-27T04:30:14.056Z,59.90
2018-07-27T04:32:41.374Z,60.10
2018-07-27T04:35:08.685Z,59.90
2018-07-27T04:37:36.040Z,60.10
2018-07-27T04:40:03.389Z,60.00
2018-07-27T04:42:31.002Z,60.50
2018-07-27T04:44:58.378Z,60.00
2018-07-27T04:47:25.689Z,60.40
2018-07-27T04:49:53.011Z,60.40
2018-07-27T04:52:20.388Z,60.10
2018-07-27T04:54:47.711Z,60.70
2018-07-27T04:57:15.034Z,60.20
2018-07-27T04:59:42.357Z,59.70
2018-07-27T05:02:09.875Z,59.50
2018-07-27T05:04:37.267Z,60.50
2018-07-27T05:07:04.595Z,60.60
2018-07-27T05:09:31.959Z,61.60
2018-07-27T05:11:59.516Z,59.10
2018-07-27T05:14:26.840Z,60.30
2018-07-27T05:16:54.175Z,59.00
2018-07-27T05:19:21.508Z,60.50
2018-07-27T05:21:48.835Z,60.70
2018-07-27T05:24:16.149Z,59.50
2018-07-27T05:26:43.491Z,60.30
2018-07-27T05:29:10.829Z,60.70
2018-07-27T05:31:38.280Z,59.10
2018-07-27T05:34:05.595Z,60.30
2018-07-27T05:36:32.910Z,59.90
2018-07-27T05:39:00.332Z,59.80
2018-07-27T05:41:27.655Z,59.10
2018-07-27T05:43:55.048Z,58.90
2018-07-27T05:46:22.352Z,59.10
2018-07-27T05:48:49.703Z,58.20
2018-07-27T05:51:17.039Z,58.10
2018-07-27T05:53:44.374Z,57.80
2018-07-27T05:56:11.685Z,56.60
2018-07-27T05:58:39.044Z,56.70
2018-07-27T06:01:06.807Z,56.40
2018-07-27T06:03:34.124Z,56.40
2018-07-27T06:06:01.612Z,55.80
2018-07-27T06:08:28.960Z,55.60
2018-07-27T06:10:56.284Z,56.00
2018-07-27T06:13:23.626Z,56.00
2018-07-27T06:15:50.963Z,55.90
2018-07-27T06:18:18.283Z,55.00
2018-07-27T06:20:45.718Z,55.40
2018-07-27T06:23:13.047Z,55.70
2018-07-27T06:25:40.432Z,55.40
2018-07-27T06:28:07.745Z,55.40
2018-07-27T06:30:35.112Z,54.40
2018-07-27T06:33:02.523Z,55.00
2018-07-27T06:35:29.907Z,54.40
2018-07-27T06:37:57.287Z,54.50
2018-07-27T06:40:24.635Z,54.50
2018-07-27T06:42:51.963Z,54.60
2018-07-27T06:45:19.312Z,54.30
2018-07-27T06:47:46.654Z,54.60
2018-07-27T06:50:13.974Z,54.50
2018-07-27T06:52:41.320Z,54.00
2018-07-27T06:55:08.651Z,53.50
2018-07-27T06:57:36.005Z,53.90
2018-07-27T07:00:03.958Z,54.30
2018-07-27T07:02:31.379Z,53.20
2018-07-27T07:04:58.980Z,53.80
2018-07-27T07:07:26.299Z,54.10
2018-07-27T07:09:53.618Z,53.70
2018-07-27T07:12:20.975Z,54.10
2018-07-27T07:14:48.284Z,53.20
2018-07-27T07:17:15.593Z,53.90
2018-07-27T07:19:42.912Z,53.40
2018-07-27T07:22:10.242Z,53.70
2018-07-27T07:24:37.820Z,53.90
2018-07-27T07:27:05.304Z,53.40
2018-07-27T07:29:32.824Z,53.00
2018-07-27T07:32:00.231Z,53.40
2018-07-27T07:34:27.601Z,53.80
2018-07-27T07:36:54.915Z,53.20
2018-07-27T07:39:22.245Z,52.90
2018-07-27T07:41:49.567Z,53.40
2018-07-27T07:44:16.915Z,52.80
2018-07-27T07:46:44.258Z,52.90
2018-07-27T07:49:11.571Z,52.60
2018-07-27T07:51:38.964Z,52.60
2018-07-27T07:54:06.339Z,52.80
2018-07-27T07:56:33.724Z,52.40
2018-07-27T07:59:01.145Z,52.30
2018-07-27T08:01:28.779Z,52.10
2018-07-27T08:03:56.162Z,52.00
2018-07-27T08:06:23.541Z,52.10
2018-07-27T08:08:51.115Z,52.20
2018-07-27T08:11:18.443Z,52.10
2018-07-27T08:13:45.768Z,51.90
2018-07-27T08:16:13.114Z,52.20
2018-07-27T08:18:40.431Z,52.10
2018-07-27T08:21:07.796Z,52.20
2018-07-27T08:23:35.223Z,52.10
2018-07-27T08:26:35.956Z,51.90
2018-07-27T08:29:03.288Z,52.00
2018-07-27T08:31:30.631Z,51.70
2018-07-27T08:33:57.966Z,51.70
2018-07-27T08:36:25.294Z,51.10
2018-07-27T08:38:52.642Z,51.50
2018-07-27T08:41:19.968Z,51.00
2018-07-27T08:43:47.276Z,50.80
2018-07-27T08:46:14.631Z,50.90
2018-07-27T08:48:42.219Z,51.20
2018-07-27T08:51:09.552Z,51.00
2018-07-27T08:53:36.927Z,51.10
2018-07-27T08:56:05.223Z,50.90
2018-07-27T08:58:32.840Z,50.60
2018-07-27T09:01:00.201Z,50.40
2018-07-27T09:03:27.523Z,49.80
2018-07-27T09:05:54.850Z,50.00
2018-07-27T09:08:22.159Z,49.70
2018-07-27T09:10:49.487Z,49.70
2018-07-27T09:13:16.828Z,49.90
2018-07-27T09:15:44.151Z,49.60
2018-07-27T09:18:11.467Z,49.90
2018-07-27T09:20:39.065Z,50.00
2018-07-27T09:23:06.379Z,49.70
2018-07-27T09:25:33.725Z,49.60
2018-07-27T09:28:01.078Z,49.60
2018-07-27T09:30:28.447Z,49.10
2018-07-27T09:32:55.787Z,49.50
2018-07-27T09:35:23.147Z,49.10
2018-07-27T09:37:50.427Z,48.70
2018-07-27T09:40:17.744Z,48.50
2018-07-27T09:42:45.095Z,48.50
2018-07-27T09:45:12.424Z,49.00
2018-07-27T09:47:39.730Z,48.20
2018-07-27T09:50:07.061Z,48.40
2018-07-27T09:52:34.411Z,48.60
2018-07-27T09:55:01.780Z,48.20
2018-07-27T09:57:29.138Z,47.80
2018-07-27T09:59:56.508Z,47.80
2018-07-27T10:02:23.820Z,47.60
2018-07-27T10:04:51.159Z,47.60
2018-07-27T10:07:18.479Z,48.20
2018-07-27T10:09:45.863Z,46.90
2018-07-27T10:12:13.283Z,47.80
2018-07-27T10:14:40.643Z,48.00
2018-07-27T10:17:07.977Z,47.60
2018-07-27T10:19:35.329Z,47.90
2018-07-27T10:22:02.694Z,47.70
2018-07-27T10:24:30.088Z,47.40
2018-07-27T10:26:57.395Z,47.50
2018-07-27T10:29:24.735Z,47.50
2018-07-27T10:31:52.099Z,47.00
2018-07-27T10:34:19.430Z,47.30
2018-07-27T10:36:46.756Z,47.20
2018-07-27T10:39:14.109Z,48.00
2018-07-27T10:41:41.434Z,47.80
2018-07-27T10:44:08.753Z,47.70
2018-07-27T10:46:36.092Z,47.70
2018-07-27T10:49:03.489Z,47.50
2018-07-27T10:51:30.871Z,47.70
2018-07-27T10:53:58.191Z,47.20
2018-07-27T10:56:25.587Z,47.60
2018-07-27T10:58:52.880Z,47.50
2018-07-27T11:01:20.205Z,47.60
2018-07-27T11:03:47.586Z,47.40
2018-07-27T11:06:14.891Z,47.40
2018-07-27T11:08:42.255Z,47.40
2018-07-27T11:11:09.539Z,46.40
2018-07-27T11:13:36.962Z,46.10
2018-07-27T11:16:04.406Z,46.80
2018-07-27T11:18:31.763Z,47.30
2018-07-27T11:20:59.183Z,47.50
2018-07-27T11:23:26.504Z,48.10
2018-07-27T11:28:21.066Z,46.90
2018-07-27T11:30:48.375Z,46.40
2018-07-27T11:33:15.723Z,47.00
2018-07-27T11:35:43.029Z,46.70
2018-07-27T11:38:10.357Z,47.00
2018-07-27T11:40:37.689Z,47.40
2018-07-27T11:43:05.224Z,46.70
2018-07-27T11:45:32.671Z,46.80
2018-07-27T11:48:00.331Z,45.30
2018-07-27T11:50:27.785Z,45.60
2018-07-27T11:52:55.271Z,45.90
2018-07-27T11:55:22.610Z,45.70
2018-07-27T11:57:50.033Z,45.70
2018-07-27T12:00:17.350Z,46.20
2018-07-27T12:02:44.751Z,45.40
2018-07-27T12:05:12.115Z,45.80
2018-07-27T12:07:39.470Z,46.00
2018-07-27T12:10:06.792Z,45.60
2018-07-27T12:12:34.150Z,45.40
2018-07-27T12:15:01.823Z,45.00
2018-07-27T12:17:28.834Z,44.70
2018-07-27T12:19:56.195Z,44.70
2018-07-27T12:22:23.546Z,45.20
2018-07-27T12:24:50.859Z,45.20
2018-07-27T12:27:18.197Z,45.40
2018-07-27T12:29:45.596Z,45.70
2018-07-27T12:32:12.945Z,45.70
2018-07-27T12:34:40.471Z,46.00
2018-07-27T12:37:07.804Z,45.50
2018-07-27T12:39:35.289Z,45.50
2018-07-27T12:42:02.715Z,45.80
2018-07-27T12:46:57.319Z,45.90
2018-07-27T12:49:24.652Z,46.20
2018-07-27T12:51:51.977Z,46.50
2018-07-27T12:54:19.315Z,46.00
2018-07-27T12:56:46.632Z,45.40
2018-07-27T12:59:13.940Z,45.90
2018-07-27T13:01:41.271Z,45.70
2018-07-27T13:04:08.617Z,46.00
2018-07-27T13:06:35.951Z,45.70
2018-07-27T13:09:05.889Z,45.60
2018-07-27T13:11:33.245Z,46.00
2018-07-27T13:14:00.605Z,45.80
2018-07-27T13:16:27.960Z,44.90
2018-07-27T13:18:55.283Z,45.50
2018-07-27T13:21:22.641Z,45.40
2018-07-27T13:23:56.104Z,45.40
2018-07-27T13:28:50.791Z,45.10
2018-07-27T13:31:18.930Z,45.00
2018-07-27T13:34:02.097Z,45.50
2018-07-27T13:36:29.704Z,45.10
2018-07-27T13:38:57.088Z,45.90
2018-07-27T13:41:24.425Z,46.00
2018-07-27T13:43:51.848Z,45.90
2018-07-27T13:46:19.132Z,45.20
2018-07-27T13:48:46.463Z,45.20
2018-07-27T13:51:13.763Z,45.20
2018-07-27T13:53:41.210Z,45.50
2018-07-27T13:56:08.543Z,45.30
2018-07-27T13:58:35.901Z,45.00
2018-07-27T14:01:03.327Z,45.60
2018-07-27T14:03:30.696Z,45.30
2018-07-27T14:05:58.016Z,45.10
2018-07-27T14:08:25.315Z,45.50
2018-07-27T14:10:52.832Z,45.50
2018-07-27T14:13:20.173Z,45.20
2018-07-27T14:15:47.497Z,44.90
2018-07-27T14:18:14.823Z,44.90
2018-07-27T14:20:42.159Z,45.10
2018-07-27T14:23:09.804Z,44.60
2018-07-27T14:25:37.150Z,44.50
2018-07-27T14:28:04.817Z,44.50
2018-07-27T14:30:32.206Z,44.10
2018-07-27T14:32:59.554Z,43.90
2018-07-27T14:35:26.906Z,44.60
2018-07-27T14:37:54.328Z,43.90
2018-07-27T14:40:21.679Z,43.90
2018-07-27T14:42:49.015Z,43.90
2018-07-27T14:45:16.357Z,44.30
2018-07-27T14:47:43.682Z,43.70
2018-07-27T14:50:11.019Z,43.90
2018-07-27T14:55:05.541Z,43.50
2018-07-27T14:57:32.895Z,43.30
2018-07-27T15:00:00.220Z,43.50
2018-07-27T15:02:27.591Z,43.50
2018-07-27T15:04:54.911Z,43.80
2018-07-27T15:07:22.251Z,43.60
2018-07-27T15:09:49.593Z,43.40
2018-07-27T15:12:16.892Z,43.00
2018-07-27T15:14:44.219Z,43.50
2018-07-27T15:17:11.544Z,43.80
2018-07-27T15:19:38.856Z,45.00
2018-07-27T15:22:06.286Z,44.00
2018-07-27T15:24:33.644Z,43.10
2018-07-27T15:27:00.979Z,43.80
2018-07-27T15:29:28.339Z,44.50
2018-07-27T15:31:55.640Z,43.40
2018-07-27T15:34:22.988Z,43.30
2018-07-27T15:36:50.316Z,43.40
2018-07-27T15:39:17.633Z,43.20
2018-07-27T15:41:44.953Z,43.50
2018-07-27T15:44:12.331Z,43.60
2018-07-27T15:46:39.766Z,43.30
2018-07-27T15:49:07.172Z,43.30
2018-07-27T15:51:34.579Z,43.20
2018-07-27T15:54:02.021Z,43.00
2018-07-27T15:56:29.533Z,44.10
2018-07-27T15:58:56.854Z,42.50
2018-07-27T16:01:24.187Z,43.30
2018-07-27T16:03:51.540Z,42.80
2018-07-27T16:06:18.919Z,42.90
2018-07-27T16:08:46.243Z,43.50
2018-07-27T16:11:13.555Z,42.70
2018-07-27T16:13:40.909Z,43.10
2018-07-27T16:16:08.228Z,42.50
2018-07-27T16:18:35.683Z,42.60
2018-07-27T16:21:03.020Z,42.20
2018-07-27T16:23:30.363Z,42.00
2018-07-27T16:25:57.721Z,42.50
2018-07-27T16:28:25.075Z,41.70
2018-07-27T16:30:52.432Z,42.00
2018-07-27T16:33:19.801Z,42.20
2018-07-27T16:35:47.208Z,42.50
2018-07-27T16:38:14.520Z,40.90
2018-07-27T16:40:41.847Z,41.90
2018-07-27T16:43:09.774Z,40.20
2018-07-27T16:45:37.213Z,39.90
2018-07-27T16:48:04.650Z,39.50
2018-07-27T16:50:32.027Z,38.40
2018-07-27T16:52:59.477Z,38.00
2018-07-27T16:55:26.747Z,38.40
2018-07-27T16:57:54.058Z,37.00
2018-07-27T17:00:21.386Z,37.10
2018-07-27T17:02:48.712Z,37.60
2018-07-27T17:07:43.302Z,37.30
2018-07-27T17:10:10.643Z,37.40
2018-07-27T17:12:37.971Z,36.80
2018-07-27T17:15:05.358Z,36.80
2018-07-27T17:17:32.701Z,37.00
2018-07-27T17:20:00.091Z,36.90
2018-07-27T17:22:27.349Z,37.20
2018-07-27T17:24:54.686Z,37.10
2018-07-27T17:27:22.003Z,36.70
2018-07-27T17:29:49.317Z,36.70
2018-07-27T17:32:16.659Z,36.70
2018-07-27T17:34:43.979Z,37.30
2018-07-27T17:37:11.388Z,37.20
2018-07-27T17:39:38.691Z,37.40
2018-07-27T17:42:06.160Z,37.00
2018-07-27T17:44:33.541Z,36.80
2018-07-27T17:47:00.917Z,36.80
2018-07-27T17:49:28.241Z,36.90
2018-07-27T17:51:55.565Z,37.00
2018-07-27T17:54:22.942Z,36.50
2018-07-27T17:56:50.295Z,36.80
2018-07-27T17:59:17.621Z,36.80
2018-07-27T18:01:44.974Z,37.10
2018-07-27T18:04:12.261Z,37.80
2018-07-27T18:06:39.583Z,37.40
2018-07-27T18:09:08.535Z,37.60
2018-07-27T18:11:35.924Z,37.70
2018-07-27T18:14:03.363Z,38.30
2018-07-27T18:16:30.720Z,38.40
2018-07-27T18:18:58.095Z,38.70
2018-07-27T18:21:25.412Z,39.10
2018-07-27T18:23:52.739Z,39.60
2018-07-27T18:26:20.092Z,39.30
2018-07-27T18:28:47.416Z,39.80
2018-07-27T18:31:14.751Z,40.30
2018-07-27T18:33:42.092Z,40.70
2018-07-27T18:36:09.434Z,41.20
2018-07-27T18:38:36.746Z,41.40
2018-07-27T18:41:04.183Z,42.00
2018-07-27T18:43:31.535Z,42.80
2018-07-27T18:45:58.869Z,43.30
2018-07-27T18:48:26.295Z,44.50
2018-07-27T18:50:53.631Z,44.00
2018-07-27T18:53:20.943Z,45.00
2018-07-27T18:55:48.264Z,45.40
2018-07-27T18:58:15.582Z,45.70
2018-07-27T19:00:42.911Z,46.20
2018-07-27T19:03:10.259Z,46.70
2018-07-27T19:05:37.562Z,46.70
2018-07-27T19:08:05.035Z,47.10
2018-07-27T19:10:32.370Z,47.70
2018-07-27T19:12:59.827Z,48.10
2018-07-27T19:15:27.189Z,47.50
2018-07-27T19:17:54.491Z,47.70
2018-07-27T19:20:21.829Z,48.10
2018-07-27T19:22:49.135Z,49.30
2018-07-27T19:25:16.471Z,49.90
2018-07-27T19:27:43.824Z,49.10
2018-07-27T19:30:11.167Z,49.90
2018-07-27T19:32:38.483Z,50.20
2018-07-27T19:35:05.855Z,50.00
2018-07-27T19:37:33.204Z,50.00
2018-07-27T19:40:00.568Z,50.20
2018-07-27T19:42:27.892Z,50.00
2018-07-27T19:44:55.207Z,50.20
2018-07-27T19:47:22.532Z,50.10
2018-07-27T19:49:50.171Z,49.40
2018-07-27T19:52:17.519Z,49.60
2018-07-27T19:54:44.851Z,49.00
2018-07-27T19:57:12.168Z,50.10
2018-07-27T19:59:39.538Z,50.20
2018-07-27T20:02:06.979Z,49.90
2018-07-27T20:04:34.295Z,50.00
2018-07-27T20:07:01.759Z,50.50
2018-07-27T20:09:29.598Z,50.50
2018-07-27T20:11:56.892Z,50.50
2018-07-27T20:14:24.219Z,50.80
2018-07-27T20:16:51.553Z,51.20
2018-07-27T20:19:18.872Z,51.50
2018-07-27T20:21:46.189Z,51.40
2018-07-27T20:24:13.537Z,51.40
2018-07-27T20:26:40.835Z,51.70
2018-07-27T20:29:08.152Z,51.60
2018-07-27T20:31:35.551Z,51.80
2018-07-27T20:34:02.909Z,51.70
2018-07-27T20:36:31.280Z,52.00
2018-07-27T20:38:58.591Z,52.10
2018-07-27T20:41:25.903Z,52.30
2018-07-27T20:43:53.240Z,52.40
2018-07-27T20:46:20.542Z,52.40
2018-07-27T20:48:47.896Z,52.60
2018-07-27T20:51:15.224Z,53.00
2018-07-27T20:53:42.547Z,52.90
2018-07-27T20:56:09.867Z,53.00
2018-07-27T20:58:37.192Z,53.90
2018-07-27T21:01:04.540Z,53.00
2018-07-27T21:03:31.875Z,53.10
2018-07-27T21:05:59.192Z,53.50
2018-07-27T21:08:26.507Z,53.40
2018-07-27T21:10:53.855Z,53.30
2018-07-27T21:13:21.144Z,53.80
2018-07-27T21:15:48.478Z,53.20
2018-07-27T21:18:15.807Z,54.10
2018-07-27T21:20:43.135Z,54.00
2018-07-27T21:23:10.440Z,53.60
2018-07-27T21:25:37.832Z,54.00
2018-07-27T21:28:05.281Z,54.20
2018-07-27T21:30:32.662Z,53.20
2018-07-27T21:33:00.038Z,53.50
2018-07-27T21:35:27.408Z,53.80
2018-07-27T21:37:55.184Z,54.30
2018-07-27T21:40:22.519Z,55.10
2018-07-27T21:42:49.891Z,54.50
2018-07-27T21:45:17.272Z,54.00
2018-07-27T21:47:44.583Z,55.70
2018-07-27T21:50:12.146Z,55.90
2018-07-27T21:52:39.609Z,56.60
2018-07-27T21:55:06.984Z,56.90
2018-07-27T21:57:34.312Z,58.10
2018-07-27T22:00:01.714Z,56.40
2018-07-27T22:02:29.859Z,57.20
2018-07-27T22:04:57.173Z,57.70
2018-07-27T22:07:24.484Z,56.30
2018-07-27T22:09:52.008Z,58.60
2018-07-27T22:12:19.344Z,56.90
2018-07-27T22:14:46.684Z,57.50
2018-07-27T22:17:14.003Z,58.20
2018-07-27T22:19:41.368Z,58.60
2018-07-27T22:22:08.688Z,58.60
2018-07-27T22:24:36.047Z,58.10
2018-07-27T22:27:03.383Z,59.50
2018-07-27T22:29:30.735Z,59.30
2018-07-27T22:31:58.051Z,59.10
2018-07-27T22:34:25.371Z,58.00
2018-07-27T22:36:52.728Z,58.50
2018-07-27T22:39:20.044Z,58.60
2018-07-27T22:41:47.466Z,59.90
2018-07-27T22:44:14.772Z,58.20
2018-07-27T22:46:42.140Z,57.80
2018-07-27T22:49:09.532Z,57.60
2018-07-27T22:51:36.835Z,57.70
2018-07-27T22:54:04.142Z,59.00
2018-07-27T22:56:31.471Z,58.60
2018-07-27T22:58:58.796Z,60.00
2018-07-27T23:01:26.136Z,58.50
2018-07-27T23:03:53.840Z,59.90
2018-07-27T23:06:21.050Z,58.80
2018-07-27T23:08:48.413Z,58.80
2018-07-27T23:11:15.718Z,58.90
2018-07-27T23:13:43.016Z,58.60
2018-07-27T23:16:10.371Z,58.90
2018-07-27T23:18:37.701Z,58.90
2018-07-27T23:21:05.646Z,58.30
2018-07-27T23:23:32.945Z,59.20
2018-07-27T23:26:00.263Z,60.20
2018-07-27T23:28:27.585Z,60.20
2018-07-27T23:30:54.938Z,60.00
2018-07-27T23:33:22.250Z,60.00
2018-07-27T23:35:49.877Z,59.50
2018-07-27T23:38:17.212Z,59.00
2018-07-27T23:40:44.543Z,59.60
2018-07-27T23:43:11.880Z,59.10
2018-07-27T23:45:39.239Z,59.10
2018-07-27T23:48:06.594Z,59.30
2018-07-27T23:50:33.928Z,60.10
2018-07-27T23:53:01.231Z,60.50
2018-07-27T23:55:28.541Z,60.00
2018-07-27T23:57:55.872Z,60.20
